createdAt,value
2019-06-01T00:01:03.853Z,9.83
2019-06-01T00:03:33.250Z,9.67
2019-06-01T00:06:02.531Z,7.17
2019-06-01T00:08:32.014Z,7.10
2019-06-01T00:11:01.275Z,6.80
2019-06-01T00:13:30.589Z,7.30
2019-06-01T00:15:59.893Z,7.33
2019-06-01T00:18:29.212Z,7.73
2019-06-01T00:20:58.560Z,8.20
2019-06-01T00:23:27.855Z,7.07
2019-06-01T00:25:57.236Z,6.67
2019-06-01T00:28:26.530Z,7.10
2019-06-01T00:30:55.785Z,7.00
2019-06-01T00:33:25.101Z,6.80
2019-06-01T00:35:54.354Z,7.47
2019-06-01T00:38:23.657Z,6.10
2019-06-01T00:40:53.104Z,6.13
2019-06-01T00:43:22.409Z,6.40
2019-06-01T00:45:53.029Z,6.77
2019-06-01T00:48:22.549Z,7.03
2019-06-01T00:50:53.103Z,7.33
2019-06-01T00:53:22.620Z,8.17
2019-06-01T00:55:51.999Z,7.87
2019-06-01T00:58:21.281Z,7.67
2019-06-01T01:00:52.014Z,8.37
2019-06-01T01:03:21.568Z,7.73
2019-06-01T01:05:50.848Z,7.97
2019-06-01T01:08:20.142Z,7.40
2019-06-01T01:10:49.494Z,7.40
2019-06-01T01:13:20.955Z,8.47
2019-06-01T01:15:51.364Z,8.13
2019-06-01T01:18:20.835Z,7.30
2019-06-01T01:20:50.120Z,7.83
2019-06-01T01:23:19.432Z,7.73
2019-06-01T01:25:48.839Z,7.03
2019-06-01T01:28:18.230Z,7.40
2019-06-01T01:31:02.909Z,6.83
2019-06-01T01:33:18.669Z,7.33
2019-06-01T01:35:48.117Z,6.90
2019-06-01T01:38:17.436Z,6.43
2019-06-01T01:40:47.897Z,6.63
2019-06-01T01:43:17.440Z,5.57
2019-06-01T01:45:46.804Z,7.00
2019-06-01T01:48:16.111Z,6.50
2019-06-01T01:50:45.498Z,6.80
2019-06-01T01:53:14.814Z,6.60
2019-06-01T01:55:44.168Z,7.30
2019-06-01T01:58:13.496Z,6.80
2019-06-01T02:00:45.080Z,7.93
2019-06-01T02:03:14.459Z,10.60
2019-06-01T02:05:43.776Z,10.20
2019-06-01T02:08:13.066Z,8.90
2019-06-01T02:10:42.335Z,8.90
2019-06-01T02:13:11.676Z,8.80
2019-06-01T02:15:41.919Z,10.17
2019-06-01T02:18:11.420Z,8.77
2019-06-01T02:20:40.773Z,8.63
2019-06-01T02:23:10.099Z,10.43
2019-06-01T02:25:39.358Z,8.83
2019-06-01T02:28:08.696Z,10.63
2019-06-01T02:30:37.982Z,9.73
2019-06-01T02:33:07.277Z,8.30
2019-06-01T02:35:36.611Z,8.27
2019-06-01T02:38:06.088Z,9.67
2019-06-01T02:40:35.502Z,7.50
2019-06-01T02:43:06.711Z,9.30
2019-06-01T02:45:36.254Z,8.37
2019-06-01T02:48:06.802Z,8.57
2019-06-01T02:50:36.300Z,8.20
2019-06-01T02:53:05.907Z,7.63
2019-06-01T02:55:35.214Z,7.23
2019-06-01T02:58:04.542Z,6.63
2019-06-01T03:01:11.131Z,7.17
2019-06-01T03:03:41.613Z,7.33
2019-06-01T03:06:12.831Z,6.67
2019-06-01T03:08:43.878Z,7.70
2019-06-01T03:11:15.787Z,7.20
2019-06-01T03:13:48.535Z,9.43
2019-06-01T03:16:21.166Z,9.50
2019-06-01T03:18:52.621Z,10.43
2019-06-01T03:21:24.601Z,10.90
2019-06-01T03:23:56.905Z,9.07
2019-06-01T03:26:28.658Z,8.83
2019-06-01T03:29:03.231Z,9.47
2019-06-01T03:31:31.827Z,10.20
2019-06-01T03:34:02.055Z,9.83
2019-06-01T03:36:32.198Z,11.40
2019-06-01T03:39:02.468Z,10.70
2019-06-01T03:41:32.405Z,9.70
2019-06-01T03:44:02.566Z,11.20
2019-06-01T03:46:32.102Z,11.40
2019-06-01T03:49:01.501Z,13.63
2019-06-01T03:51:30.781Z,14.30
2019-06-01T03:54:00.864Z,12.43
2019-06-01T03:56:30.542Z,11.60
2019-06-01T03:59:00.917Z,11.30
2019-06-01T04:01:30.402Z,11.60
2019-06-01T04:04:00.892Z,11.63
2019-06-01T04:06:30.388Z,11.03
2019-06-01T04:08:59.774Z,14.43
2019-06-01T04:11:29.169Z,11.13
2019-06-01T04:13:58.485Z,13.00
2019-06-01T04:16:27.962Z,14.60
2019-06-01T04:18:57.368Z,12.80
2019-06-01T04:21:26.636Z,12.03
2019-06-01T04:23:55.981Z,13.33
2019-06-01T04:26:25.369Z,12.90
2019-06-01T04:28:54.753Z,12.37
2019-06-01T04:31:24.080Z,12.97
2019-06-01T04:33:53.405Z,13.83
2019-06-01T04:36:22.725Z,13.23
2019-06-01T04:38:52.105Z,13.13
2019-06-01T04:41:21.366Z,14.13
2019-06-01T04:43:50.680Z,18.00
2019-06-01T04:46:20.069Z,17.60
2019-06-01T04:48:49.465Z,13.83
2019-06-01T04:51:18.861Z,16.20
2019-06-01T04:53:48.260Z,14.17
2019-06-01T04:56:17.577Z,15.20
2019-06-01T04:58:46.944Z,14.27
2019-06-01T05:01:16.335Z,13.07
2019-06-01T05:03:45.705Z,12.27
2019-06-01T05:06:15.468Z,12.93
2019-06-01T05:08:44.960Z,12.93
2019-06-01T05:11:15.571Z,13.83
2019-06-01T05:13:45.187Z,14.90
2019-06-01T05:16:14.942Z,14.93
2019-06-01T05:18:45.678Z,14.37
2019-06-01T05:21:15.249Z,13.93
2019-06-01T05:23:47.485Z,13.80
2019-06-01T05:26:17.151Z,13.07
2019-06-01T05:28:46.640Z,13.00
2019-06-01T05:31:24.341Z,12.70
2019-06-01T05:33:47.043Z,13.37
2019-06-01T05:36:16.368Z,13.53
2019-06-01T05:38:45.620Z,13.37
2019-06-01T05:41:15.045Z,13.73
2019-06-01T05:43:44.461Z,12.93
2019-06-01T05:46:14.053Z,13.17
2019-06-01T05:48:43.491Z,12.90
2019-06-01T05:51:15.583Z,12.93
2019-06-01T05:53:43.903Z,12.30
2019-06-01T05:56:14.640Z,11.63
2019-06-01T05:58:44.155Z,10.80
2019-06-01T06:01:14.682Z,12.17
2019-06-01T06:03:44.034Z,12.50
2019-06-01T06:06:13.783Z,12.57
2019-06-01T06:08:43.124Z,12.30
2019-06-01T06:11:12.894Z,12.03
2019-06-01T06:13:42.288Z,12.50
2019-06-01T06:16:11.684Z,11.70
2019-06-01T06:18:41.020Z,12.00
2019-06-01T06:21:10.392Z,11.77
2019-06-01T06:23:39.671Z,10.30
2019-06-01T06:26:09.013Z,9.90
2019-06-01T06:28:38.331Z,11.30
2019-06-01T06:31:07.618Z,11.23
2019-06-01T06:33:37.087Z,9.20
2019-06-01T06:36:06.510Z,9.00
2019-06-01T06:38:35.861Z,10.10
2019-06-01T06:41:05.203Z,9.43
2019-06-01T06:43:34.583Z,9.73
2019-06-01T06:46:03.863Z,10.27
2019-06-01T06:48:33.210Z,9.30
2019-06-01T06:51:02.628Z,10.10
2019-06-01T06:53:35.027Z,9.87
2019-06-01T06:56:03.031Z,9.63
2019-06-01T06:58:32.350Z,10.20
2019-06-01T07:01:01.715Z,10.10
2019-06-01T07:03:31.034Z,9.93
2019-06-01T07:06:00.363Z,10.30
2019-06-01T07:08:29.650Z,10.37
2019-06-01T07:10:59.009Z,10.33
2019-06-01T07:13:28.285Z,9.40
2019-06-01T07:15:57.680Z,10.63
2019-06-01T07:18:27.771Z,9.87
2019-06-01T07:20:57.331Z,10.60
2019-06-01T07:23:27.865Z,10.43
2019-06-01T07:25:57.426Z,9.37
2019-06-01T07:28:26.789Z,10.57
2019-06-01T07:30:56.065Z,10.60
2019-06-01T07:33:26.466Z,11.13
2019-06-01T07:35:55.982Z,10.43
2019-06-01T07:38:26.696Z,13.03
2019-06-01T07:40:56.124Z,10.23
2019-06-01T07:43:26.773Z,11.80
2019-06-01T07:45:56.198Z,11.37
2019-06-01T07:48:27.026Z,10.40
2019-06-01T07:50:56.566Z,10.77
2019-06-01T07:53:25.917Z,11.00
2019-06-01T07:55:55.250Z,11.47
2019-06-01T07:58:24.690Z,10.67
2019-06-01T08:00:53.927Z,11.27
2019-06-01T08:03:26.343Z,10.93
2019-06-01T08:05:54.241Z,10.53
2019-06-01T08:08:23.629Z,11.80
2019-06-01T08:10:52.933Z,10.87
2019-06-01T08:13:23.418Z,11.07
2019-06-01T08:15:52.864Z,10.80
2019-06-01T08:18:22.229Z,10.30
2019-06-01T08:20:51.662Z,11.17
2019-06-01T08:23:21.872Z,10.40
2019-06-01T08:25:51.232Z,9.63
2019-06-01T08:28:20.638Z,9.77
2019-06-01T08:30:49.922Z,9.83
2019-06-01T08:33:19.221Z,9.90
2019-06-01T08:35:48.605Z,10.10
2019-06-01T08:38:17.985Z,10.53
2019-06-01T08:40:47.385Z,9.53
2019-06-01T08:43:16.876Z,9.27
2019-06-01T08:45:46.177Z,9.70
2019-06-01T08:48:15.579Z,9.70
2019-06-01T08:50:46.209Z,10.03
2019-06-01T08:53:15.653Z,8.87
2019-06-01T08:55:44.932Z,10.27
2019-06-01T08:58:14.305Z,9.67
2019-06-01T09:00:43.558Z,10.07
2019-06-01T09:03:12.903Z,8.90
2019-06-01T09:05:42.221Z,7.97
2019-06-01T09:08:11.502Z,8.87
2019-06-01T09:10:40.818Z,7.90
2019-06-01T09:13:10.108Z,8.70
2019-06-01T09:15:39.550Z,8.60
2019-06-01T09:18:08.851Z,7.80
2019-06-01T09:20:39.047Z,8.60
2019-06-01T09:23:08.464Z,8.07
2019-06-01T09:25:37.831Z,7.27
2019-06-01T09:28:07.227Z,7.47
2019-06-01T09:30:36.626Z,7.00
2019-06-01T09:33:05.996Z,7.70
2019-06-01T09:35:52.662Z,6.37
2019-06-01T09:38:06.249Z,7.53
2019-06-01T09:40:37.175Z,6.83
2019-06-01T09:43:06.708Z,7.20
2019-06-01T09:45:36.350Z,6.97
2019-06-01T09:48:05.867Z,6.60
2019-06-01T09:50:35.517Z,6.80
2019-06-01T09:53:05.144Z,7.40
2019-06-01T09:55:34.623Z,6.97
2019-06-01T09:58:03.892Z,6.87
2019-06-01T10:00:34.711Z,6.20
2019-06-01T10:03:04.439Z,6.10
2019-06-01T10:05:34.820Z,6.23
2019-06-01T10:08:04.372Z,6.40
2019-06-01T10:10:33.950Z,6.40
2019-06-01T10:13:06.916Z,6.53
2019-06-01T10:15:34.495Z,6.73
2019-06-01T10:18:03.859Z,5.77
2019-06-01T10:20:33.264Z,5.80
2019-06-01T10:23:02.642Z,6.77
2019-06-01T10:25:32.464Z,6.60
2019-06-01T10:28:01.926Z,6.30
2019-06-01T10:30:31.691Z,6.07
2019-06-01T10:33:01.011Z,5.27
2019-06-01T10:35:30.735Z,5.03
2019-06-01T10:37:59.994Z,5.97
2019-06-01T10:40:29.293Z,5.90
2019-06-01T10:42:58.583Z,5.93
2019-06-01T10:45:27.866Z,5.93
2019-06-01T10:47:57.186Z,6.53
2019-06-01T10:50:26.564Z,6.20
2019-06-01T10:52:55.975Z,5.03
2019-06-01T10:55:25.330Z,5.07
2019-06-01T10:57:55.859Z,5.27
2019-06-01T11:00:37.501Z,5.13
2019-06-01T11:02:56.135Z,5.17
2019-06-01T11:05:25.454Z,5.10
2019-06-01T11:07:54.794Z,4.43
2019-06-01T11:10:24.177Z,4.83
2019-06-01T11:12:53.471Z,4.70
2019-06-01T11:15:22.840Z,4.63
2019-06-01T11:17:52.177Z,4.83
2019-06-01T11:20:21.477Z,5.13
2019-06-01T11:22:50.793Z,5.10
2019-06-01T11:25:20.289Z,4.60
2019-06-01T11:27:49.622Z,4.93
2019-06-01T11:30:19.430Z,4.97
2019-06-01T11:32:48.801Z,5.47
2019-06-01T11:35:18.154Z,4.70
2019-06-01T11:37:47.437Z,4.90
2019-06-01T11:40:16.778Z,5.20
2019-06-01T11:42:46.149Z,5.60
2019-06-01T11:45:15.586Z,5.20
2019-06-01T11:47:45.209Z,5.40
2019-06-01T11:50:14.970Z,4.67
2019-06-01T11:52:45.506Z,4.70
2019-06-01T11:55:15.226Z,5.07
2019-06-01T11:57:45.798Z,4.27
2019-06-01T12:00:18.551Z,4.80
2019-06-01T12:02:48.146Z,4.77
2019-06-01T12:05:17.546Z,5.03
2019-06-01T12:07:46.838Z,5.27
2019-06-01T12:10:16.507Z,4.87
2019-06-01T12:12:46.515Z,4.53
2019-06-01T12:15:15.951Z,4.70
2019-06-01T12:17:45.401Z,4.58
2019-06-01T12:20:15.441Z,4.70
2019-06-01T12:22:45.149Z,5.40
2019-06-01T12:25:15.106Z,4.60
2019-06-01T12:27:44.425Z,4.83
2019-06-01T12:30:14.039Z,4.50
2019-06-01T12:32:44.067Z,4.83
2019-06-01T12:35:13.996Z,5.83
2019-06-01T12:38:00.702Z,5.05
2019-06-01T12:40:14.556Z,4.60
2019-06-01T12:42:44.196Z,4.28
2019-06-01T12:45:22.435Z,4.55
2019-06-01T12:47:54.076Z,4.03
2019-06-01T12:50:19.960Z,5.05
2019-06-01T12:52:49.301Z,4.12
2019-06-01T12:55:18.723Z,4.28
2019-06-01T12:57:49.280Z,3.85
2019-06-01T13:00:19.560Z,4.03
2019-06-01T13:02:59.436Z,4.00
2019-06-01T13:05:19.896Z,3.67
2019-06-01T13:07:58.504Z,4.17
2019-06-01T13:10:20.113Z,4.00
2019-06-01T13:12:49.528Z,3.12
2019-06-01T13:15:18.964Z,3.70
2019-06-01T13:17:49.393Z,3.60
2019-06-01T13:20:18.875Z,3.20
2019-06-01T13:22:48.195Z,3.60
2019-06-01T13:25:17.592Z,3.37
2019-06-01T13:27:48.699Z,3.80
2019-06-01T13:30:17.841Z,3.17
2019-06-01T13:32:48.432Z,3.65
2019-06-01T13:35:18.098Z,3.27
2019-06-01T13:37:48.679Z,3.52
2019-06-01T13:40:18.242Z,3.35
2019-06-01T13:42:47.640Z,3.73
2019-06-01T13:45:17.010Z,4.63
2019-06-01T13:47:47.598Z,3.50
2019-06-01T13:50:16.895Z,3.15
2019-06-01T13:52:46.285Z,3.55
2019-06-01T13:55:15.903Z,3.50
2019-06-01T13:57:46.270Z,3.52
2019-06-01T14:00:29.231Z,4.33
2019-06-01T14:02:50.533Z,7.80
2019-06-01T14:05:17.673Z,5.43
2019-06-01T14:07:47.472Z,4.83
2019-06-01T14:10:17.795Z,4.83
2019-06-01T14:12:47.452Z,4.17
2019-06-01T14:15:17.071Z,4.30
2019-06-01T14:17:46.408Z,3.52
2019-06-01T14:20:15.711Z,3.60
2019-06-01T14:22:45.755Z,3.45
2019-06-01T14:25:15.496Z,3.15
2019-06-01T14:27:46.092Z,3.72
2019-06-01T14:30:15.755Z,3.40
2019-06-01T14:32:46.135Z,3.47
2019-06-01T14:35:15.570Z,3.30
2019-06-01T14:37:44.846Z,3.83
2019-06-01T14:40:14.969Z,3.00
2019-06-01T14:42:44.246Z,3.30
2019-06-01T14:45:13.687Z,3.20
2019-06-01T14:47:42.938Z,3.40
2019-06-01T14:50:12.263Z,3.20
2019-06-01T14:52:41.522Z,3.50
2019-06-01T14:55:10.922Z,3.40
2019-06-01T14:57:40.279Z,3.65
2019-06-01T15:00:10.259Z,3.30
2019-06-01T15:02:39.530Z,3.67
2019-06-01T15:05:09.594Z,3.60
2019-06-01T15:07:38.867Z,3.75
2019-06-01T15:10:08.663Z,3.80
2019-06-01T15:12:38.034Z,3.60
2019-06-01T15:15:08.667Z,3.75
2019-06-01T15:17:37.954Z,3.92
2019-06-01T15:20:08.363Z,3.85
2019-06-01T15:22:37.744Z,3.58
2019-06-01T15:25:07.800Z,3.83
2019-06-01T15:27:37.139Z,3.30
2019-06-01T15:30:07.337Z,3.25
2019-06-01T15:32:36.671Z,3.20
2019-06-01T15:35:06.262Z,3.52
2019-06-01T15:37:35.646Z,4.55
2019-06-01T15:40:05.721Z,4.05
2019-06-01T15:42:35.061Z,3.60
2019-06-01T15:45:04.858Z,3.92
2019-06-01T15:47:34.244Z,4.20
2019-06-01T15:50:03.519Z,4.05
2019-06-01T15:52:33.101Z,3.30
2019-06-01T15:55:02.894Z,3.75
2019-06-01T15:57:32.291Z,3.62
2019-06-01T16:00:02.995Z,3.87
2019-06-01T16:02:32.549Z,3.85
2019-06-01T16:05:01.825Z,3.35
2019-06-01T16:07:31.174Z,3.87
2019-06-01T16:10:07.613Z,3.75
2019-06-01T16:12:31.529Z,4.28
2019-06-01T16:15:02.133Z,3.40
2019-06-01T16:17:31.556Z,3.47
2019-06-01T16:20:02.180Z,3.87
2019-06-01T16:22:31.642Z,4.03
2019-06-01T16:25:00.965Z,3.77
2019-06-01T16:27:30.336Z,4.17
2019-06-01T16:30:01.528Z,4.08
2019-06-01T16:32:30.684Z,3.98
2019-06-01T16:35:01.043Z,3.40
2019-06-01T16:37:30.461Z,3.37
2019-06-01T16:40:07.449Z,3.77
2019-06-01T16:42:30.967Z,3.35
2019-06-01T16:45:01.589Z,3.52
2019-06-01T16:47:30.992Z,3.17
2019-06-01T16:50:01.716Z,3.25
2019-06-01T16:52:31.182Z,3.30
2019-06-01T16:55:00.594Z,3.58
2019-06-01T16:57:29.896Z,3.45
2019-06-01T17:00:00.671Z,4.00
2019-06-01T17:02:30.184Z,3.98
2019-06-01T17:05:00.622Z,8.85
2019-06-01T17:07:30.105Z,5.80
2019-06-01T17:10:18.476Z,3.62
2019-06-01T17:12:30.448Z,3.72
2019-06-01T17:15:00.842Z,3.60
2019-06-01T17:17:30.237Z,3.30
2019-06-01T17:19:59.540Z,3.60
2019-06-01T17:22:28.820Z,3.75
2019-06-01T17:24:58.217Z,3.80
2019-06-01T17:27:27.504Z,4.10
2019-06-01T17:29:58.017Z,3.80
2019-06-01T17:32:27.453Z,4.53
2019-06-01T17:34:58.511Z,4.20
2019-06-01T17:37:27.875Z,4.00
2019-06-01T17:39:57.275Z,3.98
2019-06-01T17:42:26.504Z,4.10
2019-06-01T17:44:55.844Z,4.33
2019-06-01T17:47:27.172Z,4.20
2019-06-01T17:49:56.211Z,3.72
2019-06-01T17:52:25.539Z,4.03
2019-06-01T17:54:54.847Z,4.25
2019-06-01T17:57:24.264Z,4.03
2019-06-01T17:59:53.827Z,4.27
2019-06-01T18:02:23.182Z,4.22
2019-06-01T18:04:52.576Z,3.97
2019-06-01T18:07:23.554Z,4.50
2019-06-01T18:09:53.195Z,4.50
2019-06-01T18:12:22.494Z,4.33
2019-06-01T18:14:51.959Z,4.70
2019-06-01T18:17:21.330Z,4.80
2019-06-01T18:19:50.702Z,4.83
2019-06-01T18:22:20.150Z,4.60
2019-06-01T18:24:49.547Z,4.80
2019-06-01T18:27:18.808Z,5.70
2019-06-01T18:29:49.630Z,4.67
2019-06-01T18:32:19.153Z,4.93
2019-06-01T18:34:48.560Z,5.23
2019-06-01T18:37:17.855Z,5.13
2019-06-01T18:39:48.222Z,5.97
2019-06-01T18:42:18.803Z,5.57
2019-06-01T18:44:49.890Z,4.83
2019-06-01T18:47:31.846Z,5.50
2019-06-01T18:49:50.256Z,5.43
2019-06-01T18:52:19.548Z,5.63
2019-06-01T18:54:48.898Z,6.73
2019-06-01T18:57:21.424Z,6.50
2019-06-01T18:59:49.215Z,7.00
2019-06-01T19:02:18.521Z,6.40
2019-06-01T19:04:47.741Z,7.23
2019-06-01T19:07:17.129Z,7.80
2019-06-01T19:09:46.533Z,8.63
2019-06-01T19:12:15.758Z,9.33
2019-06-01T19:14:45.121Z,9.13
2019-06-01T19:17:16.565Z,8.10
2019-06-01T19:19:46.010Z,9.07
2019-06-01T19:22:15.369Z,8.97
2019-06-01T19:24:44.725Z,8.97
2019-06-01T19:27:14.944Z,9.47
2019-06-01T19:29:44.273Z,9.90
2019-06-01T19:32:13.577Z,9.37
2019-06-01T19:34:43.139Z,9.57
2019-06-01T19:37:13.072Z,10.40
2019-06-01T19:39:42.766Z,9.33
2019-06-01T19:42:13.312Z,9.47
2019-06-01T19:44:42.790Z,12.80
2019-06-01T19:47:12.194Z,11.03
2019-06-01T19:49:43.844Z,9.20
2019-06-01T19:52:12.724Z,9.07
2019-06-01T19:54:42.086Z,10.10
2019-06-01T19:57:11.820Z,11.00
2019-06-01T19:59:41.178Z,10.63
2019-06-01T20:02:26.112Z,10.47
2019-06-01T20:04:41.529Z,10.53
2019-06-01T20:07:11.087Z,10.40
2019-06-01T20:09:40.485Z,10.43
2019-06-01T20:12:14.511Z,10.10
2019-06-01T20:14:40.734Z,10.07
2019-06-01T20:17:11.620Z,10.67
2019-06-01T20:19:41.132Z,10.10
2019-06-01T20:22:10.803Z,9.90
2019-06-01T20:24:40.385Z,10.50
2019-06-01T20:27:09.663Z,11.87
2019-06-01T20:29:39.061Z,10.97
2019-06-01T20:32:08.425Z,9.80
2019-06-01T20:34:37.761Z,11.27
2019-06-01T20:37:07.073Z,11.63
2019-06-01T20:39:36.364Z,12.17
2019-06-01T20:42:20.695Z,8.60
2019-06-01T20:44:36.608Z,9.27
2019-06-01T20:47:05.925Z,8.83
2019-06-01T20:49:35.221Z,9.00
2019-06-01T20:52:04.725Z,9.97
2019-06-01T20:54:34.064Z,9.60
2019-06-01T20:57:03.455Z,10.20
2019-06-01T20:59:32.760Z,10.50
2019-06-01T21:02:02.176Z,10.00
2019-06-01T21:04:33.557Z,11.87
2019-06-01T21:07:02.864Z,11.47
2019-06-01T21:09:32.220Z,10.70
2019-06-01T21:12:01.562Z,12.30
2019-06-01T21:14:30.981Z,11.33
2019-06-01T21:17:00.330Z,11.63
2019-06-01T21:19:29.643Z,12.03
2019-06-01T21:21:59.023Z,10.30
2019-06-01T21:24:28.396Z,10.30
2019-06-01T21:26:57.708Z,10.53
2019-06-01T21:29:27.047Z,11.07
2019-06-01T21:31:58.596Z,11.37
2019-06-01T21:34:27.940Z,10.87
2019-06-01T21:36:57.580Z,11.70
2019-06-01T21:39:26.944Z,11.97
2019-06-01T21:41:56.212Z,10.33
2019-06-01T21:44:25.776Z,11.67
2019-06-01T21:46:55.247Z,11.73
2019-06-01T21:49:24.536Z,11.83
2019-06-01T21:51:54.027Z,11.43
2019-06-01T21:54:24.538Z,11.10
2019-06-01T21:56:54.062Z,11.00
2019-06-01T21:59:23.386Z,10.90
2019-06-01T22:01:52.934Z,12.13
2019-06-01T22:04:23.057Z,11.27
2019-06-01T22:06:52.466Z,11.37
2019-06-01T22:09:21.739Z,12.17
2019-06-01T22:11:51.111Z,11.67
2019-06-01T22:14:21.337Z,11.50
2019-06-01T22:16:50.768Z,10.77
2019-06-01T22:19:20.177Z,10.97
2019-06-01T22:21:49.548Z,10.80
2019-06-01T22:24:19.733Z,11.33
2019-06-01T22:26:49.060Z,11.10
2019-06-01T22:29:18.395Z,11.57
2019-06-01T22:31:47.773Z,11.70
2019-06-01T22:34:18.499Z,11.10
2019-06-01T22:36:47.862Z,10.53
2019-06-01T22:39:19.277Z,11.73
2019-06-01T22:41:48.365Z,11.33
2019-06-01T22:44:17.985Z,12.03
2019-06-01T22:46:48.072Z,11.60
2019-06-01T22:49:17.444Z,10.90
2019-06-01T22:51:46.731Z,11.43
2019-06-01T22:54:16.044Z,11.27
2019-06-01T22:56:45.332Z,9.97
2019-06-01T22:59:14.748Z,10.23
2019-06-01T23:01:44.085Z,11.13
2019-06-01T23:04:13.419Z,10.73
2019-06-01T23:06:42.728Z,11.30
2019-06-01T23:09:12.025Z,11.50
2019-06-01T23:11:42.209Z,10.07
2019-06-01T23:14:11.557Z,10.83
2019-06-01T23:16:40.835Z,11.40
2019-06-01T23:19:10.164Z,11.73
2019-06-01T23:21:39.561Z,11.90
2019-06-01T23:24:08.829Z,11.17
2019-06-01T23:26:38.214Z,10.67
2019-06-01T23:29:07.619Z,12.13
2019-06-01T23:31:36.916Z,11.20
2019-06-01T23:34:06.187Z,10.97
2019-06-01T23:36:35.499Z,12.07
2019-06-01T23:39:07.240Z,15.10
2019-06-01T23:41:36.491Z,12.53
2019-06-01T23:44:11.937Z,23.73
2019-06-01T23:46:36.899Z,16.60
2019-06-01T23:49:06.212Z,10.97
2019-06-01T23:51:35.523Z,13.13
2019-06-01T23:54:04.810Z,14.17
2019-06-01T23:56:34.686Z,13.60
2019-06-01T23:59:04.338Z,14.53
